sensor_id;sensor_type;location;lat;lon;timestamp;pressure;altitude;pressure_sealevel;temperature;humidity
64821;BME280;51256;55.654;37.264;2022-09-30T00:00:16;98910.94;;;10.34;75.33
64821;BME280;51256;55.654;37.264;2022-09-30T00:02:42;98911.63;;;10.36;74.97
64821;BME280;51256;55.654;37.264;2022-09-30T00:05:07;98927.53;;;10.36;74.63
64821;BME280;51256;55.654;37.264;2022-09-30T00:07:33;98940.00;;;10.36;74.68
64821;BME280;51256;55.654;37.264;2022-09-30T00:09:58;98939.16;;;10.35;74.45
64821;BME280;51256;55.654;37.264;2022-09-30T00:12:24;98928.91;;;10.41;74.83
64821;BME280;51256;55.654;37.264;2022-09-30T00:14:51;98936.03;;;10.40;74.75
64821;BME280;51256;55.654;37.264;2022-09-30T00:17:17;98934.88;;;10.43;74.83
64821;BME280;51256;55.654;37.264;2022-09-30T00:19:42;98939.03;;;10.45;74.73
64821;BME280;51256;55.654;37.264;2022-09-30T00:22:08;98933.72;;;10.37;74.04
64821;BME280;51256;55.654;37.264;2022-09-30T00:24:33;98944.91;;;10.31;74.50
64821;BME280;51256;55.654;37.264;2022-09-30T00:26:59;98943.56;;;10.27;74.25
64821;BME280;51256;55.654;37.264;2022-09-30T00:29:24;98953.69;;;10.31;74.98
64821;BME280;51256;55.654;37.264;2022-09-30T00:31:50;98949.47;;;10.38;75.22
64821;BME280;51256;55.654;37.264;2022-09-30T00:34:15;98950.97;;;10.41;74.52
64821;BME280;51256;55.654;37.264;2022-09-30T00:36:46;98944.31;;;10.37;74.24
64821;BME280;51256;55.654;37.264;2022-09-30T00:39:18;98940.41;;;10.31;74.66
64821;BME280;51256;55.654;37.264;2022-09-30T00:41:45;98938.38;;;10.25;74.58
64821;BME280;51256;55.654;37.264;2022-09-30T00:50:40;98940.75;;;10.28;74.42
64821;BME280;51256;55.654;37.264;2022-09-30T00:53:30;98926.25;;;10.22;74.98
64821;BME280;51256;55.654;37.264;2022-09-30T00:55:59;98940.75;;;10.28;75.16
64821;BME280;51256;55.654;37.264;2022-09-30T01:00:59;98932.22;;;10.43;74.49
64821;BME280;51256;55.654;37.264;2022-09-30T01:03:30;98937.75;;;10.49;74.54
64821;BME280;51256;55.654;37.264;2022-09-30T01:05:56;98944.25;;;10.55;74.67
64821;BME280;51256;55.654;37.264;2022-09-30T01:08:22;98940.44;;;10.58;74.31
64821;BME280;51256;55.654;37.264;2022-09-30T01:10:49;98946.44;;;10.60;73.84
64821;BME280;51256;55.654;37.264;2022-09-30T01:13:17;98936.09;;;10.48;74.07
64821;BME280;51256;55.654;37.264;2022-09-30T01:18:51;98956.22;;;10.33;74.71
64821;BME280;51256;55.654;37.264;2022-09-30T01:37:55;98949.94;;;10.16;74.73
64821;BME280;51256;55.654;37.264;2022-09-30T01:45:48;98936.97;;;10.13;74.82
64821;BME280;51256;55.654;37.264;2022-09-30T01:48:33;98944.44;;;10.09;74.51
64821;BME280;51256;55.654;37.264;2022-09-30T01:54:04;98945.44;;;10.16;74.52
64821;BME280;51256;55.654;37.264;2022-09-30T01:56:44;98942.28;;;10.13;74.42
64821;BME280;51256;55.654;37.264;2022-09-30T01:59:19;98957.69;;;10.09;74.48
64821;BME280;51256;55.654;37.264;2022-09-30T02:01:54;98952.13;;;10.02;74.91
64821;BME280;51256;55.654;37.264;2022-09-30T02:04:28;98950.78;;;9.98;74.28
64821;BME280;51256;55.654;37.264;2022-09-30T02:06:59;98941.69;;;10.01;74.15
64821;BME280;51256;55.654;37.264;2022-09-30T02:09:34;98944.78;;;9.96;75.19
64821;BME280;51256;55.654;37.264;2022-09-30T02:12:04;98939.66;;;9.95;75.48
64821;BME280;51256;55.654;37.264;2022-09-30T02:14:43;98940.09;;;9.90;74.57
64821;BME280;51256;55.654;37.264;2022-09-30T02:17:15;98930.97;;;9.84;75.24
64821;BME280;51256;55.654;37.264;2022-09-30T02:19:53;98935.88;;;9.79;74.74
64821;BME280;51256;55.654;37.264;2022-09-30T02:22:26;98923.78;;;9.77;75.81
64821;BME280;51256;55.654;37.264;2022-09-30T02:24:59;98935.03;;;9.79;75.12
64821;BME280;51256;55.654;37.264;2022-09-30T02:27:34;98934.81;;;9.72;75.70
64821;BME280;51256;55.654;37.264;2022-09-30T02:30:06;98930.56;;;9.61;75.43
64821;BME280;51256;55.654;37.264;2022-09-30T02:32:49;98924.06;;;9.55;75.79
64821;BME280;51256;55.654;37.264;2022-09-30T02:35:46;98942.56;;;9.65;75.28
64821;BME280;51256;55.654;37.264;2022-09-30T02:38:19;98946.19;;;9.64;75.50
64821;BME280;51256;55.654;37.264;2022-09-30T02:40:55;98943.06;;;9.69;75.73
64821;BME280;51256;55.654;37.264;2022-09-30T02:43:23;98949.91;;;9.71;76.00
64821;BME280;51256;55.654;37.264;2022-09-30T02:46:21;98949.81;;;9.81;74.92
64821;BME280;51256;55.654;37.264;2022-09-30T02:49:03;98954.28;;;9.81;74.97
64821;BME280;51256;55.654;37.264;2022-09-30T02:54:26;98951.41;;;9.74;74.78
64821;BME280;51256;55.654;37.264;2022-09-30T02:59:55;98946.41;;;9.71;75.08
64821;BME280;51256;55.654;37.264;2022-09-30T03:02:22;98942.94;;;9.70;75.11
64821;BME280;51256;55.654;37.264;2022-09-30T03:04:49;98947.09;;;9.73;75.25
64821;BME280;51256;55.654;37.264;2022-09-30T03:07:14;98951.25;;;9.76;74.90
64821;BME280;51256;55.654;37.264;2022-09-30T03:09:40;98953.22;;;9.73;75.31
64821;BME280;51256;55.654;37.264;2022-09-30T03:12:25;98949.13;;;9.79;74.86
64821;BME280;51256;55.654;37.264;2022-09-30T03:15:12;98954.50;;;9.87;75.22
64821;BME280;51256;55.654;37.264;2022-09-30T03:26:53;98959.34;;;9.92;74.98
64821;BME280;51256;55.654;37.264;2022-09-30T03:37:45;98957.09;;;9.79;74.88
64821;BME280;51256;55.654;37.264;2022-09-30T03:40:40;98947.75;;;9.75;75.37
64821;BME280;51256;55.654;37.264;2022-09-30T03:43:20;98948.34;;;9.69;74.86
64821;BME280;51256;55.654;37.264;2022-09-30T03:46:01;98950.03;;;9.70;75.21
64821;BME280;51256;55.654;37.264;2022-09-30T03:48:30;98947.75;;;9.75;74.93
64821;BME280;51256;55.654;37.264;2022-09-30T03:50:58;98940.81;;;9.74;75.00
64821;BME280;51256;55.654;37.264;2022-09-30T03:53:24;98948.91;;;9.72;74.88
64821;BME280;51256;55.654;37.264;2022-09-30T03:55:52;98933.84;;;9.73;74.54
64821;BME280;51256;55.654;37.264;2022-09-30T03:58:20;98948.16;;;9.80;75.34
64821;BME280;51256;55.654;37.264;2022-09-30T04:00:51;98943.00;;;9.79;74.55
64821;BME280;51256;55.654;37.264;2022-09-30T04:03:17;98945.72;;;9.87;74.86
64821;BME280;51256;55.654;37.264;2022-09-30T04:05:45;98943.06;;;9.87;74.92
64821;BME280;51256;55.654;37.264;2022-09-30T04:08:10;98954.38;;;9.89;74.89
64821;BME280;51256;55.654;37.264;2022-09-30T04:10:38;98950.50;;;9.83;74.63
64821;BME280;51256;55.654;37.264;2022-09-30T04:13:05;98968.38;;;9.99;74.66
64821;BME280;51256;55.654;37.264;2022-09-30T04:15:30;98958.28;;;10.03;74.18
64821;BME280;51256;55.654;37.264;2022-09-30T04:17:57;98962.47;;;10.05;74.57
64821;BME280;51256;55.654;37.264;2022-09-30T04:20:22;98956.00;;;10.08;74.37
64821;BME280;51256;55.654;37.264;2022-09-30T04:22:48;98955.53;;;10.13;74.34
64821;BME280;51256;55.654;37.264;2022-09-30T04:25:13;98968.66;;;10.14;74.16
64821;BME280;51256;55.654;37.264;2022-09-30T04:27:39;98950.91;;;10.15;74.17
64821;BME280;51256;55.654;37.264;2022-09-30T04:30:05;98953.78;;;10.21;74.03
64821;BME280;51256;55.654;37.264;2022-09-30T04:32:30;98953.78;;;10.21;73.40
64821;BME280;51256;55.654;37.264;2022-09-30T04:34:56;98949.84;;;10.26;73.85
64821;BME280;51256;55.654;37.264;2022-09-30T04:37:22;98959.00;;;10.31;73.11
64821;BME280;51256;55.654;37.264;2022-09-30T04:39:48;98956.34;;;10.31;73.41
64821;BME280;51256;55.654;37.264;2022-09-30T04:42:14;98962.56;;;10.40;73.47
64821;BME280;51256;55.654;37.264;2022-09-30T04:44:41;98952.94;;;10.39;73.14
64821;BME280;51256;55.654;37.264;2022-09-30T04:47:07;98963.00;;;10.53;73.11
64821;BME280;51256;55.654;37.264;2022-09-30T04:49:32;98964.03;;;10.61;73.34
64821;BME280;51256;55.654;37.264;2022-09-30T04:51:59;98959.34;;;10.54;73.01
64821;BME280;51256;55.654;37.264;2022-09-30T04:54:24;98966.38;;;10.64;72.71
64821;BME280;51256;55.654;37.264;2022-09-30T04:56:50;98971.91;;;10.70;72.81
64821;BME280;51256;55.654;37.264;2022-09-30T04:59:15;98968.09;;;10.73;72.57
64821;BME280;51256;55.654;37.264;2022-09-30T05:01:40;98969.28;;;10.79;72.35
64821;BME280;51256;55.654;37.264;2022-09-30T05:04:07;98965.47;;;10.81;72.35
64821;BME280;51256;55.654;37.264;2022-09-30T05:06:33;98964.19;;;10.85;72.05
64821;BME280;51256;55.654;37.264;2022-09-30T05:08:59;98970.78;;;10.81;72.01
64821;BME280;51256;55.654;37.264;2022-09-30T05:11:24;98964.84;;;10.87;72.78
64821;BME280;51256;55.654;37.264;2022-09-30T05:13:50;98971.53;;;11.00;72.43
64821;BME280;51256;55.654;37.264;2022-09-30T05:16:16;98965.59;;;11.06;71.87
64821;BME280;51256;55.654;37.264;2022-09-30T05:18:42;98961.78;;;11.09;71.60
64821;BME280;51256;55.654;37.264;2022-09-30T05:21:10;98959.59;;;11.04;71.48
64821;BME280;51256;55.654;37.264;2022-09-30T05:23:36;98960.41;;;10.96;71.11
64821;BME280;51256;55.654;37.264;2022-09-30T05:26:02;98967.03;;;10.92;71.19
64821;BME280;51256;55.654;37.264;2022-09-30T05:28:29;98961.72;;;10.92;71.62
64821;BME280;51256;55.654;37.264;2022-09-30T05:31:00;98960.56;;;10.95;71.64
64821;BME280;51256;55.654;37.264;2022-09-30T05:33:27;98974.19;;;11.00;71.50
64821;BME280;51256;55.654;37.264;2022-09-30T05:35:54;98964.91;;;11.04;71.43
64821;BME280;51256;55.654;37.264;2022-09-30T05:38:22;98965.78;;;11.13;71.33
64821;BME280;51256;55.654;37.264;2022-09-30T05:40:48;98963.16;;;11.21;71.14
64821;BME280;51256;55.654;37.264;2022-09-30T05:43:14;98966.34;;;11.25;70.93
64821;BME280;51256;55.654;37.264;2022-09-30T05:45:39;98964.38;;;11.35;70.72
64821;BME280;51256;55.654;37.264;2022-09-30T05:48:05;98966.56;;;11.48;70.63
64821;BME280;51256;55.654;37.264;2022-09-30T05:50:31;98969.75;;;11.60;69.84
64821;BME280;51256;55.654;37.264;2022-09-30T05:52:56;98977.41;;;11.71;69.77
64821;BME280;51256;55.654;37.264;2022-09-30T05:55:22;98972.94;;;11.80;69.91
64821;BME280;51256;55.654;37.264;2022-09-30T05:57:49;98973.78;;;11.89;69.42
64821;BME280;51256;55.654;37.264;2022-09-30T06:00:16;98969.66;;;11.94;69.33
64821;BME280;51256;55.654;37.264;2022-09-30T06:02:42;98965.00;;;11.96;69.21
64821;BME280;51256;55.654;37.264;2022-09-30T06:05:09;98960.38;;;11.98;69.24
64821;BME280;51256;55.654;37.264;2022-09-30T06:07:36;98961.19;;;12.07;69.30
64821;BME280;51256;55.654;37.264;2022-09-30T06:10:04;98958.38;;;12.09;68.76
64821;BME280;51256;55.654;37.264;2022-09-30T06:12:30;98941.22;;;11.95;69.16
64821;BME280;51256;55.654;37.264;2022-09-30T06:14:55;98965.84;;;12.13;68.96
64821;BME280;51256;55.654;37.264;2022-09-30T06:17:21;98965.69;;;12.15;68.90
64821;BME280;51256;55.654;37.264;2022-09-30T06:19:47;98968.34;;;12.15;69.14
64821;BME280;51256;55.654;37.264;2022-09-30T06:22:14;98968.00;;;12.10;69.06
64821;BME280;51256;55.654;37.264;2022-09-30T06:24:40;98968.34;;;12.07;69.19
64821;BME280;51256;55.654;37.264;2022-09-30T06:27:05;98974.00;;;12.04;69.24
64821;BME280;51256;55.654;37.264;2022-09-30T06:29:31;98965.63;;;11.90;69.20
64821;BME280;51256;55.654;37.264;2022-09-30T06:31:56;98973.13;;;11.95;69.70
64821;BME280;51256;55.654;37.264;2022-09-30T06:34:22;98971.47;;;11.94;69.55
64821;BME280;51256;55.654;37.264;2022-09-30T06:36:48;98965.50;;;12.00;69.58
64821;BME280;51256;55.654;37.264;2022-09-30T06:39:13;98975.16;;;12.09;69.20
64821;BME280;51256;55.654;37.264;2022-09-30T06:41:39;98970.84;;;12.16;69.07
64821;BME280;51256;55.654;37.264;2022-09-30T06:44:07;98974.16;;;12.27;69.10
64821;BME280;51256;55.654;37.264;2022-09-30T06:46:33;98977.66;;;12.36;68.95
64821;BME280;51256;55.654;37.264;2022-09-30T06:48:59;98978.81;;;12.49;68.79
64821;BME280;51256;55.654;37.264;2022-09-30T06:51:25;98988.25;;;12.60;68.65
64821;BME280;51256;55.654;37.264;2022-09-30T06:53:52;98977.13;;;12.65;68.26
64821;BME280;51256;55.654;37.264;2022-09-30T06:56:17;98980.09;;;12.70;68.29
64821;BME280;51256;55.654;37.264;2022-09-30T06:58:44;98989.25;;;12.76;68.31
64821;BME280;51256;55.654;37.264;2022-09-30T07:01:10;98987.41;;;12.85;68.35
64821;BME280;51256;55.654;37.264;2022-09-30T07:03:43;98987.84;;;12.96;68.10
64821;BME280;51256;55.654;37.264;2022-09-30T07:06:10;98998.94;;;13.17;67.38
64821;BME280;51256;55.654;37.264;2022-09-30T07:08:36;98996.88;;;13.35;67.55
64821;BME280;51256;55.654;37.264;2022-09-30T07:11:09;98981.50;;;13.45;67.01
64821;BME280;51256;55.654;37.264;2022-09-30T07:13:41;98978.34;;;13.50;67.02
64821;BME280;51256;55.654;37.264;2022-09-30T07:16:08;98995.00;;;13.52;67.29
64821;BME280;51256;55.654;37.264;2022-09-30T07:18:36;98993.84;;;13.46;67.18
64821;BME280;51256;55.654;37.264;2022-09-30T07:21:02;98977.66;;;13.48;67.34
64821;BME280;51256;55.654;37.264;2022-09-30T07:23:28;98982.00;;;13.49;67.41
64821;BME280;51256;55.654;37.264;2022-09-30T07:25:59;98970.50;;;13.49;67.57
64821;BME280;51256;55.654;37.264;2022-09-30T07:28:28;98990.34;;;13.77;67.64
64821;BME280;51256;55.654;37.264;2022-09-30T07:30:57;98992.22;;;13.92;66.93
64821;BME280;51256;55.654;37.264;2022-09-30T07:33:25;98991.44;;;14.15;66.87
64821;BME280;51256;55.654;37.264;2022-09-30T07:35:53;98980.22;;;14.34;66.52
64821;BME280;51256;55.654;37.264;2022-09-30T07:38:20;98984.66;;;14.65;65.61
64821;BME280;51256;55.654;37.264;2022-09-30T07:43:18;98994.72;;;14.93;64.92
64821;BME280;51256;55.654;37.264;2022-09-30T07:45:45;98995.56;;;14.94;64.81
64821;BME280;51256;55.654;37.264;2022-09-30T07:48:11;98988.09;;;14.89;64.89
64821;BME280;51256;55.654;37.264;2022-09-30T07:50:56;98992.59;;;14.88;65.23
64821;BME280;51256;55.654;37.264;2022-09-30T07:53:21;98977.94;;;14.69;65.40
64821;BME280;51256;55.654;37.264;2022-09-30T07:55:47;98979.91;;;14.52;65.93
64821;BME280;51256;55.654;37.264;2022-09-30T07:58:12;98974.53;;;14.37;66.67
64821;BME280;51256;55.654;37.264;2022-09-30T08:00:38;98974.41;;;14.31;66.72
64821;BME280;51256;55.654;37.264;2022-09-30T08:03:03;98976.56;;;14.35;67.12
64821;BME280;51256;55.654;37.264;2022-09-30T08:05:29;98978.44;;;14.50;67.29
64821;BME280;51256;55.654;37.264;2022-09-30T08:07:54;98976.78;;;14.49;67.01
64821;BME280;51256;55.654;37.264;2022-09-30T08:10:20;98967.47;;;14.59;66.97
64821;BME280;51256;55.654;37.264;2022-09-30T08:12:45;98979.19;;;14.58;66.73
64821;BME280;51256;55.654;37.264;2022-09-30T08:15:11;98975.31;;;14.61;67.27
64821;BME280;51256;55.654;37.264;2022-09-30T08:17:36;98968.31;;;14.60;67.29
64821;BME280;51256;55.654;37.264;2022-09-30T08:20:02;98972.25;;;14.72;67.35
64821;BME280;51256;55.654;37.264;2022-09-30T08:22:28;98973.59;;;14.83;67.14
64821;BME280;51256;55.654;37.264;2022-09-30T08:24:53;98974.63;;;14.97;66.41
64821;BME280;51256;55.654;37.264;2022-09-30T08:27:19;98971.13;;;15.12;66.53
64821;BME280;51256;55.654;37.264;2022-09-30T08:29:44;98974.44;;;15.29;65.95
64821;BME280;51256;55.654;37.264;2022-09-30T08:32:10;98976.75;;;15.53;65.61
64821;BME280;51256;55.654;37.264;2022-09-30T08:34:35;98980.69;;;15.72;65.19
64821;BME280;51256;55.654;37.264;2022-09-30T08:37:01;98962.84;;;15.80;64.80
64821;BME280;51256;55.654;37.264;2022-09-30T08:39:27;98958.75;;;15.99;64.58
64821;BME280;51256;55.654;37.264;2022-09-30T08:44:40;98961.28;;;16.29;64.11
64821;BME280;51256;55.654;37.264;2022-09-30T08:50:18;98952.94;;;16.45;63.65
64821;BME280;51256;55.654;37.264;2022-09-30T08:52:53;98954.88;;;16.58;63.46
64821;BME280;51256;55.654;37.264;2022-09-30T08:55:22;98960.28;;;16.65;63.30
64821;BME280;51256;55.654;37.264;2022-09-30T08:57:49;98950.94;;;16.54;63.38
64821;BME280;51256;55.654;37.264;2022-09-30T09:00:17;98969.31;;;16.57;63.45
64821;BME280;51256;55.654;37.264;2022-09-30T09:02:55;98960.34;;;16.43;63.95
64821;BME280;51256;55.654;37.264;2022-09-30T09:08:24;98961.19;;;15.94;64.91
64821;BME280;51256;55.654;37.264;2022-09-30T09:11:00;98961.06;;;15.65;65.79
64821;BME280;51256;55.654;37.264;2022-09-30T09:13:50;98970.94;;;15.50;66.27
64821;BME280;51256;55.654;37.264;2022-09-30T09:18:57;98965.53;;;15.43;66.82
64821;BME280;51256;55.654;37.264;2022-09-30T09:23:56;98975.03;;;15.46;67.00
64821;BME280;51256;55.654;37.264;2022-09-30T09:26:26;98958.63;;;15.49;67.03
64821;BME280;51256;55.654;37.264;2022-09-30T09:31:25;98969.50;;;16.05;65.47
64821;BME280;51256;55.654;37.264;2022-09-30T09:33:55;98974.75;;;16.42;64.86
64821;BME280;51256;55.654;37.264;2022-09-30T09:40:02;98970.09;;;17.14;63.50
64821;BME280;51256;55.654;37.264;2022-09-30T09:42:57;98974.09;;;17.32;62.92
64821;BME280;51256;55.654;37.264;2022-09-30T09:45:53;98963.28;;;17.18;63.10
64821;BME280;51256;55.654;37.264;2022-09-30T09:48:22;98969.41;;;16.99;63.30
64821;BME280;51256;55.654;37.264;2022-09-30T09:51:05;98962.84;;;16.80;63.84
64821;BME280;51256;55.654;37.264;2022-09-30T09:53:44;98966.06;;;16.68;64.01
64821;BME280;51256;55.654;37.264;2022-09-30T09:56:21;98949.31;;;16.60;64.35
64821;BME280;51256;55.654;37.264;2022-09-30T10:01:48;98943.38;;;15.86;66.42
64821;BME280;51256;55.654;37.264;2022-09-30T10:04:29;98958.41;;;15.87;67.14
64821;BME280;51256;55.654;37.264;2022-09-30T10:07:11;98952.69;;;15.90;67.58
64821;BME280;51256;55.654;37.264;2022-09-30T10:09:39;98945.16;;;16.00;67.64
64821;BME280;51256;55.654;37.264;2022-09-30T10:14:52;98954.84;;;16.01;67.52
64821;BME280;51256;55.654;37.264;2022-09-30T10:17:34;98969.00;;;16.17;67.64
64821;BME280;51256;55.654;37.264;2022-09-30T10:20:06;98962.91;;;16.30;67.18
64821;BME280;51256;55.654;37.264;2022-09-30T10:22:34;98955.56;;;16.38;66.81
64821;BME280;51256;55.654;37.264;2022-09-30T10:25:17;98952.75;;;16.47;66.75
64821;BME280;51256;55.654;37.264;2022-09-30T10:30:34;98945.03;;;16.65;66.22
64821;BME280;51256;55.654;37.264;2022-09-30T10:33:01;98947.84;;;16.85;65.55
64821;BME280;51256;55.654;37.264;2022-09-30T10:35:30;98950.22;;;17.02;65.25
64821;BME280;51256;55.654;37.264;2022-09-30T10:37:57;98949.09;;;17.25;64.54
64821;BME280;51256;55.654;37.264;2022-09-30T10:40:27;98952.25;;;17.42;63.86
64821;BME280;51256;55.654;37.264;2022-09-30T10:42:53;98958.91;;;17.59;63.49
64821;BME280;51256;55.654;37.264;2022-09-30T10:45:34;98946.09;;;17.61;62.97
64821;BME280;51256;55.654;37.264;2022-09-30T10:48:05;98951.72;;;17.73;62.84
64821;BME280;51256;55.654;37.264;2022-09-30T10:50:32;98948.44;;;17.78;62.89
64821;BME280;51256;55.654;37.264;2022-09-30T10:55:30;98944.72;;;17.86;62.76
64821;BME280;51256;55.654;37.264;2022-09-30T10:58:00;98942.22;;;17.77;62.47
64821;BME280;51256;55.654;37.264;2022-09-30T11:00:29;98934.16;;;17.71;63.27
64821;BME280;51256;55.654;37.264;2022-09-30T11:02:58;98945.91;;;17.76;63.01
64821;BME280;51256;55.654;37.264;2022-09-30T11:05:28;98952.97;;;17.84;62.92
64821;BME280;51256;55.654;37.264;2022-09-30T11:10:55;98945.97;;;17.96;62.34
64821;BME280;51256;55.654;37.264;2022-09-30T11:13:41;98953.38;;;17.88;62.75
64821;BME280;51256;55.654;37.264;2022-09-30T11:16:20;98964.75;;;17.90;63.04
64821;BME280;51256;55.654;37.264;2022-09-30T11:18:56;98957.13;;;17.87;63.08
64821;BME280;51256;55.654;37.264;2022-09-30T11:21:31;98954.28;;;18.02;62.85
64821;BME280;51256;55.654;37.264;2022-09-30T11:24:10;98949.94;;;18.01;62.60
64821;BME280;51256;55.654;37.264;2022-09-30T11:27:14;98946.59;;;18.05;62.68
64821;BME280;51256;55.654;37.264;2022-09-30T11:35:58;98970.19;;;18.17;62.54
64821;BME280;51256;55.654;37.264;2022-09-30T11:41:23;98980.13;;;18.50;61.90
64821;BME280;51256;55.654;37.264;2022-09-30T11:44:15;98979.28;;;18.49;61.66
64821;BME280;51256;55.654;37.264;2022-09-30T11:54:55;98989.59;;;18.12;62.81
64821;BME280;51256;55.654;37.264;2022-09-30T12:00:19;98993.91;;;17.93;63.15
64821;BME280;51256;55.654;37.264;2022-09-30T12:03:00;98972.00;;;17.89;63.21
64821;BME280;51256;55.654;37.264;2022-09-30T12:05:50;98985.25;;;18.18;62.86
64821;BME280;51256;55.654;37.264;2022-09-30T12:08:23;98989.00;;;18.37;62.47
64821;BME280;51256;55.654;37.264;2022-09-30T12:10:58;98978.03;;;18.45;62.12
64821;BME280;51256;55.654;37.264;2022-09-30T12:13:31;98985.47;;;18.50;62.13
64821;BME280;51256;55.654;37.264;2022-09-30T12:15:59;98987.16;;;18.51;62.13
64821;BME280;51256;55.654;37.264;2022-09-30T12:18:31;98985.69;;;18.48;62.13
64821;BME280;51256;55.654;37.264;2022-09-30T12:21:33;98978.47;;;18.42;62.58
64821;BME280;51256;55.654;37.264;2022-09-30T12:24:08;98971.81;;;18.18;62.59
64821;BME280;51256;55.654;37.264;2022-09-30T12:26:40;98978.84;;;18.19;63.08
64821;BME280;51256;55.654;37.264;2022-09-30T12:32:12;98985.06;;;18.33;63.05
64821;BME280;51256;55.654;37.264;2022-09-30T12:43:14;98984.03;;;18.20;63.42
64821;BME280;51256;55.654;37.264;2022-09-30T12:45:50;98981.53;;;18.19;63.51
64821;BME280;51256;55.654;37.264;2022-09-30T12:48:20;98986.31;;;18.17;63.62
64821;BME280;51256;55.654;37.264;2022-09-30T12:50:49;98978.66;;;18.13;63.54
64821;BME280;51256;55.654;37.264;2022-09-30T12:53:21;98977.63;;;18.14;63.90
64821;BME280;51256;55.654;37.264;2022-09-30T12:55:48;98978.03;;;18.05;64.07
64821;BME280;51256;55.654;37.264;2022-09-30T12:58:26;98983.56;;;17.96;64.26
64821;BME280;51256;55.654;37.264;2022-09-30T13:01:15;98980.22;;;17.88;64.56
64821;BME280;51256;55.654;37.264;2022-09-30T13:03:50;98986.44;;;17.81;64.40
64821;BME280;51256;55.654;37.264;2022-09-30T13:06:20;98988.88;;;17.76;65.03
64821;BME280;51256;55.654;37.264;2022-09-30T13:09:04;98982.47;;;17.64;65.08
64821;BME280;51256;55.654;37.264;2022-09-30T13:11:37;98991.72;;;17.61;65.35
64821;BME280;51256;55.654;37.264;2022-09-30T13:27:37;99020.91;;;17.29;66.00
64821;BME280;51256;55.654;37.264;2022-09-30T13:32:39;99007.66;;;17.21;66.41
64821;BME280;51256;55.654;37.264;2022-09-30T13:35:32;99023.38;;;17.24;66.46
64821;BME280;51256;55.654;37.264;2022-09-30T13:46:31;99028.44;;;17.06;67.01
64821;BME280;51256;55.654;37.264;2022-09-30T13:49:11;99038.56;;;17.10;67.15
64821;BME280;51256;55.654;37.264;2022-09-30T13:51:38;99034.03;;;17.11;67.05
64821;BME280;51256;55.654;37.264;2022-09-30T13:56:41;99038.16;;;17.13;67.30
64821;BME280;51256;55.654;37.264;2022-09-30T14:02:24;99045.41;;;17.13;67.40
64821;BME280;51256;55.654;37.264;2022-09-30T14:11:10;99045.06;;;16.94;68.00
64821;BME280;51256;55.654;37.264;2022-09-30T14:13:46;99046.00;;;16.86;68.35
64821;BME280;51256;55.654;37.264;2022-09-30T14:21:33;99054.88;;;16.87;68.64
64821;BME280;51256;55.654;37.264;2022-09-30T14:24:12;99050.72;;;16.84;68.50
64821;BME280;51256;55.654;37.264;2022-09-30T14:26:55;99049.06;;;16.83;68.56
64821;BME280;51256;55.654;37.264;2022-09-30T14:32:19;99075.59;;;16.72;68.98
64821;BME280;51256;55.654;37.264;2022-09-30T14:34:48;99068.94;;;16.67;69.14
64821;BME280;51256;55.654;37.264;2022-09-30T14:37:35;99068.94;;;16.67;68.94
64821;BME280;51256;55.654;37.264;2022-09-30T14:40:02;99063.09;;;16.57;69.10
64821;BME280;51256;55.654;37.264;2022-09-30T14:42:34;99066.63;;;16.58;69.16
64821;BME280;51256;55.654;37.264;2022-09-30T14:45:04;99074.81;;;16.56;69.08
64821;BME280;51256;55.654;37.264;2022-09-30T14:47:43;99078.97;;;16.59;69.35
64821;BME280;51256;55.654;37.264;2022-09-30T14:50:16;99078.34;;;16.57;69.31
64821;BME280;51256;55.654;37.264;2022-09-30T14:52:46;99079.72;;;16.52;69.36
64821;BME280;51256;55.654;37.264;2022-09-30T14:55:36;99074.56;;;16.51;69.45
64821;BME280;51256;55.654;37.264;2022-09-30T15:00:59;99082.94;;;16.41;69.69
64821;BME280;51256;55.654;37.264;2022-09-30T15:03:26;99089.34;;;16.40;70.07
64821;BME280;51256;55.654;37.264;2022-09-30T15:05:52;99087.88;;;16.37;69.57
64821;BME280;51256;55.654;37.264;2022-09-30T15:08:20;99085.09;;;16.31;70.00
64821;BME280;51256;55.654;37.264;2022-09-30T15:10:53;99089.38;;;16.25;70.24
64821;BME280;51256;55.654;37.264;2022-09-30T15:13:28;99093.66;;;16.19;70.53
64821;BME280;51256;55.654;37.264;2022-09-30T15:15:56;99092.94;;;16.11;70.79
64821;BME280;51256;55.654;37.264;2022-09-30T15:18:40;99097.38;;;16.03;71.24
64821;BME280;51256;55.654;37.264;2022-09-30T15:21:11;99101.00;;;15.96;71.51
64821;BME280;51256;55.654;37.264;2022-09-30T15:23:40;99110.25;;;15.93;71.27
64821;BME280;51256;55.654;37.264;2022-09-30T15:26:06;99100.28;;;15.87;71.99
64821;BME280;51256;55.654;37.264;2022-09-30T15:28:35;99108.97;;;15.89;71.80
64821;BME280;51256;55.654;37.264;2022-09-30T15:31:01;99108.03;;;15.82;71.98
64821;BME280;51256;55.654;37.264;2022-09-30T15:33:28;99116.78;;;15.76;72.15
64821;BME280;51256;55.654;37.264;2022-09-30T15:36:14;99122.78;;;15.78;72.24
64821;BME280;51256;55.654;37.264;2022-09-30T15:38:46;99122.34;;;15.74;72.31
64821;BME280;51256;55.654;37.264;2022-09-30T15:41:12;99120.00;;;15.71;72.37
64821;BME280;51256;55.654;37.264;2022-09-30T15:43:49;99127.50;;;15.76;72.22
64821;BME280;51256;55.654;37.264;2022-09-30T15:46:27;99121.31;;;15.75;72.20
64821;BME280;51256;55.654;37.264;2022-09-30T15:49:02;99122.97;;;15.76;72.19
64821;BME280;51256;55.654;37.264;2022-09-30T15:51:34;99131.19;;;15.75;72.20
64821;BME280;51256;55.654;37.264;2022-09-30T15:54:29;99134.50;;;15.77;72.44
64821;BME280;51256;55.654;37.264;2022-09-30T15:56:58;99126.56;;;15.68;72.26
64821;BME280;51256;55.654;37.264;2022-09-30T15:59:57;99130.38;;;15.74;72.24
64821;BME280;51256;55.654;37.264;2022-09-30T16:02:25;99124.53;;;15.70;72.26
64821;BME280;51256;55.654;37.264;2022-09-30T16:04:51;99124.34;;;15.72;72.33